South Portland, Maine
Current Conditions -  °F | °C
As of 10:51 AM on Monday 29 Dec 2014 (Local Time) from KPWM Reporting Station
Broken Clouds Broken Clouds  
Wind Chill: 34°   Ceiling: 6000
Heat Index: 41°   Visibility: 10mi
Dew Point: 22°   Wind: 13mph
Humidity: 47%   Direction: 290°WNW
Pressure: 30.07"   Gusts: 22mph
Location:  43.64°N, 70.25°W
Report Text: KPWM 291551Z 29011G19KT 10SM BKN060 05/M06 A3007 RMK AO2 SLP182 T00501056
Loading
Personal Weather Stations






























Interactive Weather Map New forecast layout! Learn more

10-Day Weather Forecast

Advertisements
Track Severe Weather on mobile